Time;durP1;ratioP1;P1;durP2;ratioP2;P2;SDS_P1;SDS_P2;PMS_P1;PMS_P2;Temp;Humidity;BMP_temperature;BMP_pressure;BME280_temperature;BME280_humidity;BME280_pressure;Samples;Min_cycle;Max_cycle;Signal;HPM_P1;HPM_P2
2022/05/20 00:00:18;;;;;;;3.77;2.27;;;18.30;99.90;;;;;;5030406;28;20631;-82
2022/05/20 00:02:46;;;;;;;2.03;1.83;;;18.30;99.90;;;;;;5029398;28;20734;-82
2022/05/20 00:05:13;;;;;;;3.17;2.70;;;18.20;99.90;;;;;;5026116;28;20678;-82
2022/05/20 00:07:40;;;;;;;2.40;2.20;;;18.30;99.90;;;;;;5025694;28;20642;-82
2022/05/20 00:10:10;;;;;;;2.40;1.60;;;18.20;99.90;;;;;;5030106;28;20659;-82
2022/05/20 00:12:40;;;;;;;1.77;1.67;;;18.20;99.90;;;;;;5030074;28;21613;-83
2022/05/20 00:15:11;;;;;;;1.97;1.87;;;18.10;99.90;;;;;;5030465;28;20623;-83
2022/05/20 00:17:39;;;;;;;2.17;1.97;;;18.00;99.90;;;;;;5030388;28;20665;-83
2022/05/20 00:20:09;;;;;;;2.90;2.70;;;18.00;99.90;;;;;;5019582;28;20631;-82
2022/05/20 00:22:36;;;;;;;2.27;2.00;;;17.90;99.90;;;;;;5025014;28;20659;-82
2022/05/20 00:27:52;;;;;;;3.27;2.97;;;18.00;99.90;;;;;;5027015;28;20627;-82
2022/05/20 00:30:21;;;;;;;2.90;2.50;;;18.00;99.90;;;;;;5023640;28;20697;-82
2022/05/20 00:32:49;;;;;;;3.27;2.77;;;17.90;99.90;;;;;;5029778;28;20655;-82
2022/05/20 00:35:16;;;;;;;1.87;1.77;;;17.90;99.90;;;;;;5028505;28;20979;-83
2022/05/20 00:37:44;;;;;;;2.87;2.53;;;17.80;99.90;;;;;;5029421;28;20630;-82
2022/05/20 00:40:13;;;;;;;2.47;2.27;;;17.80;99.90;;;;;;5029158;28;20619;-82
2022/05/20 00:42:41;;;;;;;2.73;2.50;;;17.70;99.90;;;;;;5030073;28;20625;-82
2022/05/20 00:45:11;;;;;;;2.37;2.17;;;17.70;99.90;;;;;;5029560;28;20734;-82
2022/05/20 00:47:38;;;;;;;3.60;2.30;;;17.70;99.90;;;;;;5029582;28;20986;-82
2022/05/20 00:50:10;;;;;;;2.33;2.13;;;17.60;99.90;;;;;;5030032;28;20619;-82
2022/05/20 00:52:39;;;;;;;2.50;2.30;;;17.60;99.90;;;;;;5013843;28;21211;-82
2022/05/20 00:55:12;;;;;;;3.07;2.53;;;17.60;99.90;;;;;;5025560;28;21197;-83
2022/05/20 00:57:43;;;;;;;2.37;2.10;;;17.70;99.90;;;;;;5011363;28;20624;-83
2022/05/20 01:00:18;;;;;;;2.03;1.93;;;17.70;99.90;;;;;;5023987;28;20655;-82
2022/05/20 01:02:49;;;;;;;2.93;2.30;;;17.60;99.90;;;;;;5028141;28;21145;-82
2022/05/20 01:05:21;;;;;;;2.00;1.90;;;17.60;99.90;;;;;;5023966;28;20678;-84
2022/05/20 01:07:48;;;;;;;2.63;2.43;;;17.60;99.90;;;;;;5026747;28;20627;-82
2022/05/20 01:10:15;;;;;;;2.80;2.40;;;17.70;99.90;;;;;;5029339;28;20670;-82
2022/05/20 01:12:43;;;;;;;3.27;2.37;;;17.70;99.90;;;;;;5028120;28;20997;-82
2022/05/20 01:15:13;;;;;;;2.23;2.13;;;17.60;99.90;;;;;;5029094;28;20636;-82
2022/05/20 01:17:40;;;;;;;2.40;2.20;;;17.60;99.90;;;;;;5028505;28;20635;-82
2022/05/20 01:20:12;;;;;;;2.17;2.03;;;17.60;99.90;;;;;;5019895;28;20689;-82
2022/05/20 01:22:49;;;;;;;2.80;2.37;;;17.60;99.90;;;;;;5022993;28;21262;-82
2022/05/20 01:25:17;;;;;;;3.33;2.30;;;17.50;99.90;;;;;;5017576;28;20627;-82
2022/05/20 01:27:44;;;;;;;2.00;1.90;;;17.40;99.90;;;;;;5024089;28;20623;-81
2022/05/20 01:30:13;;;;;;;2.43;1.83;;;17.40;99.90;;;;;;5023312;28;20670;-83
2022/05/20 01:32:41;;;;;;;2.03;1.90;;;17.40;99.90;;;;;;5029356;28;20627;-83
2022/05/20 01:35:14;;;;;;;2.27;1.73;;;17.30;99.90;;;;;;5028937;28;20615;-81
2022/05/20 01:37:42;;;;;;;2.77;2.47;;;17.40;99.90;;;;;;5029107;28;21014;-82
2022/05/20 01:40:12;;;;;;;2.80;2.50;;;17.40;99.90;;;;;;5026657;28;20620;-82
2022/05/20 01:42:45;;;;;;;2.50;2.30;;;17.50;99.90;;;;;;5028383;28;20673;-83
2022/05/20 01:45:18;;;;;;;2.47;2.27;;;17.50;99.90;;;;;;5027955;28;20646;-82
2022/05/20 01:47:50;;;;;;;2.70;2.40;;;17.50;99.90;;;;;;5028513;28;20611;-82
2022/05/20 01:50:23;;;;;;;2.43;2.13;;;17.50;99.90;;;;;;5028894;28;20635;-83
2022/05/20 01:52:55;;;;;;;2.00;1.63;;;17.50;99.90;;;;;;5026451;28;20659;-82
2022/05/20 01:55:32;;;;;;;2.67;2.30;;;17.60;99.90;;;;;;5027131;28;20630;-82
2022/05/20 01:58:04;;;;;;;2.20;2.03;;;17.70;99.90;;;;;;5012935;28;20658;-84
2022/05/20 02:00:33;;;;;;;2.90;2.33;;;17.60;99.90;;;;;;5028729;28;20628;-82
2022/05/20 02:03:05;;;;;;;3.40;2.80;;;17.60;99.90;;;;;;5028252;28;21256;-83
2022/05/20 02:05:37;;;;;;;2.43;2.23;;;17.50;99.90;;;;;;5020508;28;20657;-82
2022/05/20 02:08:11;;;;;;;1.83;1.73;;;17.50;99.90;;;;;;5027025;28;20638;-82
2022/05/20 02:10:42;;;;;;;2.30;2.10;;;17.60;99.90;;;;;;5027860;28;20734;-82
2022/05/20 02:13:12;;;;;;;2.40;2.20;;;17.50;99.90;;;;;;5028201;28;20706;-83
2022/05/20 02:15:44;;;;;;;3.27;2.80;;;17.50;99.90;;;;;;5028443;28;20608;-83
2022/05/20 02:18:16;;;;;;;2.50;1.90;;;17.60;99.90;;;;;;5025792;28;20623;-82
2022/05/20 02:20:48;;;;;;;2.27;2.07;;;17.60;99.90;;;;;;5028643;28;20659;-82
2022/05/20 02:23:19;;;;;;;2.30;2.10;;;17.60;99.90;;;;;;5019631;28;20774;-82
2022/05/20 02:25:53;;;;;;;2.80;2.03;;;17.50;99.90;;;;;;5022468;28;20656;-82
2022/05/20 02:28:23;;;;;;;2.30;1.83;;;17.50;99.90;;;;;;5028081;28;20612;-82
2022/05/20 02:30:51;;;;;;;2.50;2.30;;;17.50;99.90;;;;;;5019248;28;20642;-82
2022/05/20 02:33:21;;;;;;;3.37;3.17;;;17.50;99.90;;;;;;5028015;28;20646;-83
2022/05/20 02:35:48;;;;;;;3.43;2.10;;;17.40;99.90;;;;;;5027711;28;20655;-82
2022/05/20 02:38:18;;;;;;;2.93;1.80;;;17.40;99.90;;;;;;5027806;28;21314;-82
2022/05/20 02:40:47;;;;;;;2.73;2.53;;;17.40;99.90;;;;;;5018799;28;20624;-81
2022/05/20 02:43:15;;;;;;;3.70;3.20;;;17.40;99.90;;;;;;5022442;28;20766;-82
2022/05/20 02:45:44;;;;;;;3.63;3.27;;;17.30;99.90;;;;;;5027552;28;20707;-83
2022/05/20 02:48:13;;;;;;;2.50;2.30;;;17.30;99.90;;;;;;5027964;28;20661;-82
2022/05/20 02:50:40;;;;;;;2.67;2.20;;;17.20;99.90;;;;;;5027639;28;20665;-84
2022/05/20 02:53:06;;;;;;;4.47;2.50;;;17.20;99.90;;;;;;5010989;28;20628;-82
2022/05/20 02:55:34;;;;;;;2.73;2.53;;;17.20;99.90;;;;;;5026105;28;20754;-82
2022/05/20 02:58:01;;;;;;;3.97;2.80;;;17.20;99.90;;;;;;5016999;28;20725;-82
2022/05/20 03:06:12;;;;;;;3.00;2.57;;;17.10;99.90;;;;;;4999798;28;20655;-83
2022/05/20 03:08:39;;;;;;;3.13;2.40;;;17.20;99.90;;;;;;5016816;28;20639;-84
2022/05/20 03:11:05;;;;;;;3.40;2.87;;;17.20;99.90;;;;;;5027182;28;20618;-83
2022/05/20 03:13:32;;;;;;;2.50;2.30;;;17.20;99.90;;;;;;5027836;28;20646;-82
2022/05/20 03:16:01;;;;;;;3.00;2.50;;;17.10;99.90;;;;;;5026998;28;20647;-83
2022/05/20 03:18:27;;;;;;;2.53;2.30;;;17.20;99.90;;;;;;5023529;28;20651;-82
2022/05/20 03:20:54;;;;;;;2.10;1.90;;;17.20;99.90;;;;;;5027097;28;21082;-82
2022/05/20 03:23:21;;;;;;;4.30;3.63;;;17.30;99.90;;;;;;5026797;28;21100;-83
2022/05/20 03:25:48;;;;;;;2.23;2.03;;;17.30;99.90;;;;;;5020621;28;20723;-83
2022/05/20 03:28:15;;;;;;;5.00;1.97;;;17.40;99.90;;;;;;5023988;28;20743;-82
2022/05/20 03:30:42;;;;;;;2.50;2.30;;;17.40;99.90;;;;;;5018599;28;20635;-83
2022/05/20 03:33:10;;;;;;;2.60;1.50;;;17.50;99.90;;;;;;5026789;28;21273;-83
2022/05/20 03:35:37;;;;;;;2.10;1.90;;;17.50;99.90;;;;;;5027225;28;21038;-83
2022/05/20 03:38:04;;;;;;;2.10;1.93;;;17.60;99.90;;;;;;5027920;28;20738;-83
2022/05/20 03:40:31;;;;;;;2.20;2.10;;;17.70;99.90;;;;;;5025123;28;20713;-83
2022/05/20 03:42:59;;;;;;;2.13;1.93;;;17.70;99.90;;;;;;4997066;28;20692;-82
2022/05/20 03:45:26;;;;;;;2.57;2.40;;;17.70;99.90;;;;;;5012550;28;21252;-83
2022/05/20 03:47:53;;;;;;;2.40;2.20;;;17.80;99.90;;;;;;5026434;28;20689;-84
2022/05/20 03:50:21;;;;;;;2.13;1.93;;;17.90;99.90;;;;;;5027470;28;20625;-83
2022/05/20 03:52:48;;;;;;;2.80;2.60;;;17.90;99.90;;;;;;5026290;28;20670;-83
2022/05/20 03:55:15;;;;;;;2.57;2.37;;;17.90;99.90;;;;;;5027560;28;20727;-83
2022/05/20 03:57:42;;;;;;;2.43;1.80;;;18.00;99.90;;;;;;5023860;28;20674;-83
2022/05/20 04:00:10;;;;;;;3.00;2.70;;;18.00;99.90;;;;;;5027147;28;20651;-85
2022/05/20 04:02:36;;;;;;;3.47;2.93;;;18.10;99.90;;;;;;5026928;28;21061;-84
2022/05/20 04:05:03;;;;;;;2.30;2.10;;;18.10;99.90;;;;;;5024249;28;20628;-83
2022/05/20 04:07:31;;;;;;;2.70;1.97;;;18.10;99.90;;;;;;5018458;28;20717;-83
2022/05/20 04:10:02;;;;;;;2.07;1.87;;;18.10;99.90;;;;;;5027570;28;20635;-84
2022/05/20 04:12:33;;;;;;;2.10;1.90;;;18.10;99.90;;;;;;5013375;28;20630;-83
2022/05/20 04:15:01;;;;;;;3.50;2.90;;;18.10;99.90;;;;;;5030049;28;20627;-83
2022/05/20 04:17:29;;;;;;;2.60;2.40;;;18.10;99.90;;;;;;5030180;28;20735;-83
2022/05/20 04:19:56;;;;;;;2.07;1.97;;;18.10;99.90;;;;;;5015742;28;20635;-83
2022/05/20 04:22:27;;;;;;;2.00;1.90;;;18.00;99.90;;;;;;5026444;28;20699;-83
2022/05/20 04:24:55;;;;;;;2.90;2.10;;;18.10;99.90;;;;;;5030522;28;21195;-82
2022/05/20 04:27:22;;;;;;;2.53;2.33;;;18.10;99.90;;;;;;5025846;28;21205;-83
2022/05/20 04:29:49;;;;;;;2.30;2.10;;;18.10;99.90;;;;;;5029401;28;20659;-84
2022/05/20 04:32:16;;;;;;;2.33;2.13;;;18.10;99.90;;;;;;5030267;28;20667;-84
2022/05/20 04:34:43;;;;;;;3.43;2.77;;;18.00;99.90;;;;;;5030177;28;20711;-83
2022/05/20 04:37:10;;;;;;;2.60;2.40;;;18.00;99.90;;;;;;5030048;28;20669;-83
2022/05/20 04:39:37;;;;;;;2.20;2.00;;;18.10;99.90;;;;;;5021596;28;20663;-83
2022/05/20 04:47:36;;;;;;;3.13;2.83;;;18.00;99.90;;;;;;5019725;28;20714;-83
2022/05/20 04:50:04;;;;;;;2.77;2.57;;;18.00;99.90;;;;;;5026444;28;20734;-84
2022/05/20 04:52:31;;;;;;;1.97;1.77;;;18.10;99.90;;;;;;5029366;28;21232;-84
2022/05/20 04:54:56;;;;;;;2.83;2.63;;;18.10;99.90;;;;;;5029906;28;20663;-82
2022/05/20 04:57:30;;;;;;;3.03;2.70;;;18.10;99.90;;;;;;5029831;28;20659;-83
2022/05/20 05:00:00;;;;;;;2.23;2.03;;;18.20;99.90;;;;;;5029860;28;20267;-84
2022/05/20 05:02:27;;;;;;;2.67;2.47;;;18.30;99.90;;;;;;5029551;28;20753;-83
2022/05/20 05:04:54;;;;;;;2.70;2.50;;;18.30;99.90;;;;;;5026615;28;21494;-83
2022/05/20 05:07:21;;;;;;;2.90;2.50;;;18.40;99.90;;;;;;5024576;28;20620;-84
2022/05/20 05:09:49;;;;;;;3.63;2.97;;;18.40;99.90;;;;;;5029498;28;20714;-83
2022/05/20 05:12:17;;;;;;;2.60;2.40;;;18.50;99.90;;;;;;5018405;28;20710;-83
2022/05/20 05:14:47;;;;;;;3.23;2.83;;;18.60;99.90;;;;;;5029723;28;20984;-83
2022/05/20 05:17:17;;;;;;;2.43;2.23;;;18.60;99.90;;;;;;5029140;28;20634;-83
2022/05/20 05:19:45;;;;;;;1.97;1.87;;;18.60;99.90;;;;;;5029578;28;20698;-83
2022/05/20 05:22:13;;;;;;;2.60;1.77;;;18.70;99.90;;;;;;5029050;28;20612;-83
2022/05/20 05:24:40;;;;;;;2.27;2.17;;;18.70;99.90;;;;;;5028911;28;20647;-84
2022/05/20 05:27:07;;;;;;;3.50;2.63;;;18.80;99.90;;;;;;5029928;28;20627;-83
2022/05/20 05:29:38;;;;;;;1.90;1.70;;;18.80;99.90;;;;;;5029677;28;20643;-84
2022/05/20 05:32:07;;;;;;;2.27;2.07;;;18.90;99.90;;;;;;5028952;28;20639;-83
2022/05/20 05:34:35;;;;;;;2.27;2.07;;;19.00;99.90;;;;;;5028363;28;20632;-83
2022/05/20 05:37:03;;;;;;;2.03;1.93;;;19.00;99.90;;;;;;5028889;28;20677;-83
2022/05/20 05:39:33;;;;;;;2.80;2.60;;;19.00;99.90;;;;;;5029117;28;20659;-83
2022/05/20 05:42:01;;;;;;;2.03;1.93;;;19.10;99.90;;;;;;5025458;28;20619;-83
2022/05/20 05:44:28;;;;;;;2.43;2.23;;;19.10;99.90;;;;;;5028901;28;20695;-83
2022/05/20 05:46:55;;;;;;;1.80;1.70;;;19.20;99.90;;;;;;5000976;28;20730;-83
2022/05/20 05:49:23;;;;;;;2.00;1.90;;;19.40;99.90;;;;;;5008891;28;20624;-84
2022/05/20 05:51:50;;;;;;;2.17;2.00;;;19.40;99.90;;;;;;5016099;28;20729;-84
2022/05/20 05:54:18;;;;;;;2.30;1.90;;;19.50;99.90;;;;;;5020073;28;21550;-84
2022/05/20 05:56:45;;;;;;;2.20;2.00;;;19.60;99.90;;;;;;5015936;28;20682;-83
2022/05/20 05:59:12;;;;;;;2.40;2.20;;;19.60;99.90;;;;;;5025242;28;20631;-84
2022/05/20 06:01:39;;;;;;;2.33;2.07;;;19.60;99.90;;;;;;5027008;28;20655;-84
2022/05/20 06:04:05;;;;;;;2.60;2.20;;;19.70;99.90;;;;;;5025155;28;20759;-84
2022/05/20 06:06:34;;;;;;;2.03;1.93;;;19.80;99.90;;;;;;5021083;28;20651;-84
2022/05/20 06:09:01;;;;;;;2.80;2.53;;;19.80;99.90;;;;;;5028818;28;20639;-84
2022/05/20 06:11:28;;;;;;;2.40;2.20;;;19.80;99.90;;;;;;5027169;28;20627;-84
2022/05/20 06:13:56;;;;;;;2.50;2.30;;;19.90;99.90;;;;;;5029523;28;20721;-83
2022/05/20 06:16:23;;;;;;;1.70;1.60;;;19.90;99.90;;;;;;5022839;28;20693;-84
2022/05/20 06:18:50;;;;;;;2.07;1.97;;;20.10;99.90;;;;;;5027463;28;20635;-84
2022/05/20 06:21:17;;;;;;;2.00;1.90;;;20.20;99.90;;;;;;5023926;28;20637;-85
2022/05/20 06:23:45;;;;;;;1.80;1.70;;;20.20;99.90;;;;;;5022596;28;20713;-84
2022/05/20 06:26:12;;;;;;;2.23;2.03;;;20.40;99.90;;;;;;5028118;28;20693;-84
2022/05/20 06:28:39;;;;;;;2.33;2.10;;;20.50;99.90;;;;;;5029200;28;20689;-84
2022/05/20 06:31:06;;;;;;;2.80;2.03;;;20.50;99.90;;;;;;5028711;28;20688;-85
2022/05/20 06:33:33;;;;;;;2.37;2.17;;;20.60;99.90;;;;;;5028584;28;20644;-85
2022/05/20 06:41:33;;;;;;;1.90;1.80;;;21.30;99.90;;;;;;5023663;28;20627;-85
2022/05/20 06:44:01;;;;;;;2.00;1.90;;;20.80;99.90;;;;;;5028892;28;20717;-84
2022/05/20 06:46:28;;;;;;;2.60;2.40;;;21.00;99.90;;;;;;5026606;28;20706;-85
2022/05/20 06:48:57;;;;;;;1.77;1.57;;;21.10;99.90;;;;;;5021821;28;20667;-85
2022/05/20 06:51:29;;;;;;;2.40;2.30;;;21.20;99.00;;;;;;5027946;28;20718;-85
2022/05/20 06:53:59;;;;;;;1.73;1.63;;;21.40;99.30;;;;;;5028081;28;21173;-85
2022/05/20 06:56:29;;;;;;;3.03;2.83;;;21.50;98.50;;;;;;5015628;28;20620;-84
2022/05/20 06:58:56;;;;;;;1.60;1.50;;;21.60;98.90;;;;;;5023797;28;21003;-85
2022/05/20 07:01:23;;;;;;;2.57;2.37;;;21.80;98.00;;;;;;5026664;28;20627;-85
2022/05/20 07:03:51;;;;;;;1.57;1.47;;;21.80;97.80;;;;;;5028274;28;20742;-85
2022/05/20 07:06:19;;;;;;;3.60;2.53;;;22.00;97.50;;;;;;5029159;28;20631;-85
2022/05/20 07:08:48;;;;;;;2.37;2.17;;;22.10;97.30;;;;;;5029471;28;20638;-85
2022/05/20 07:11:18;;;;;;;2.90;1.83;;;22.30;96.60;;;;;;5028550;28;21204;-85
2022/05/20 07:13:47;;;;;;;2.23;2.10;;;22.30;96.90;;;;;;5026448;28;20631;-85
2022/05/20 07:16:14;;;;;;;1.77;1.67;;;22.30;96.70;;;;;;4988346;28;20629;-86
2022/05/20 07:18:41;;;;;;;2.60;2.30;;;22.40;96.70;;;;;;5009003;28;20655;-84
2022/05/20 07:21:09;;;;;;;4.13;2.20;;;22.50;96.10;;;;;;5027530;28;20631;-85
2022/05/20 07:23:36;;;;;;;1.90;1.80;;;22.70;96.00;;;;;;5018411;28;20691;-85
2022/05/20 07:26:04;;;;;;;2.60;2.40;;;22.80;95.90;;;;;;5028491;28;20631;-85
2022/05/20 07:28:33;;;;;;;2.10;2.00;;;22.90;95.40;;;;;;5027973;28;20685;-85
2022/05/20 07:31:00;;;;;;;2.50;2.30;;;23.00;95.20;;;;;;5028637;28;20747;-85
2022/05/20 07:33:28;;;;;;;2.50;2.30;;;23.20;94.80;;;;;;5028618;28;20697;-85
2022/05/20 07:35:55;;;;;;;2.00;1.90;;;23.30;95.40;;;;;;5028734;28;20705;-85
2022/05/20 07:38:23;;;;;;;2.10;2.00;;;23.20;94.00;;;;;;5028915;28;20634;-86
2022/05/20 07:40:50;;;;;;;2.37;2.27;;;23.30;94.00;;;;;;5019651;28;20635;-85
2022/05/20 07:43:20;;;;;;;3.40;2.50;;;23.50;95.50;;;;;;5016202;28;20655;-86
2022/05/20 07:45:49;;;;;;;2.30;2.17;;;23.50;94.20;;;;;;5012666;28;20616;-85
2022/05/20 07:48:16;;;;;;;2.70;2.50;;;23.70;94.90;;;;;;5024776;28;21093;-86
2022/05/20 07:50:45;;;;;;;2.70;2.50;;;23.80;93.50;;;;;;5029899;28;20867;-85
2022/05/20 07:53:29;;;;;;;2.20;2.00;;;24.00;92.90;;;;;;5032232;28;20721;-86
2022/05/20 07:56:00;;;;;;;3.30;2.83;;;24.00;92.30;;;;;;5022296;28;20620;-85
2022/05/20 07:58:30;;;;;;;1.87;1.77;;;24.00;92.70;;;;;;5029288;28;20627;-86
2022/05/20 08:00:59;;;;;;;2.87;2.30;;;24.00;92.80;;;;;;5032011;28;20620;-85
2022/05/20 08:06:13;;;;;;;2.23;2.07;;;24.20;92.40;;;;;;5020281;28;20624;-85
2022/05/20 08:08:40;;;;;;;3.07;2.77;;;24.30;92.70;;;;;;5028982;28;20619;-86
2022/05/20 08:11:07;;;;;;;2.17;2.07;;;24.40;92.70;;;;;;5031291;28;20635;-86
2022/05/20 08:13:34;;;;;;;3.07;2.40;;;24.60;91.20;;;;;;5033289;28;20666;-85
2022/05/20 08:16:03;;;;;;;2.63;2.27;;;24.70;90.80;;;;;;5032883;28;20758;-85
2022/05/20 08:18:30;;;;;;;2.90;1.97;;;24.90;90.80;;;;;;5031938;28;20705;-85
2022/05/20 08:20:58;;;;;;;2.37;2.17;;;25.00;91.70;;;;;;5032148;28;20718;-85
2022/05/20 08:23:26;;;;;;;2.10;1.90;;;24.80;90.80;;;;;;5020900;28;20666;-85
2022/05/20 08:25:53;;;;;;;3.27;2.57;;;25.00;90.60;;;;;;5032746;28;20615;-84
2022/05/20 08:28:20;;;;;;;2.60;2.40;;;25.10;89.70;;;;;;5032982;28;20684;-85
2022/05/20 08:30:47;;;;;;;2.20;2.00;;;25.20;84.70;;;;;;5031861;28;20651;-85
2022/05/20 08:33:15;;;;;;;2.53;2.10;;;25.20;89.80;;;;;;5031084;28;20689;-86
2022/05/20 08:35:42;;;;;;;2.90;2.70;;;25.40;89.40;;;;;;5031714;28;20627;-84
2022/05/20 08:38:09;;;;;;;2.60;2.33;;;25.50;87.70;;;;;;5031808;28;20643;-85
2022/05/20 08:40:43;;;;;;;2.83;2.63;;;25.60;90.30;;;;;;5027599;28;20623;-85
2022/05/20 08:43:11;;;;;;;2.80;2.53;;;25.70;87.80;;;;;;5031774;28;20732;-85
2022/05/20 08:45:38;;;;;;;3.30;3.00;;;25.70;88.30;;;;;;5030420;28;20654;-86
2022/05/20 08:48:07;;;;;;;2.50;2.30;;;25.80;84.60;;;;;;5028300;28;20627;-84
2022/05/20 08:50:39;;;;;;;3.13;1.93;;;25.80;88.30;;;;;;5029074;28;20623;-86
2022/05/20 08:53:12;;;;;;;2.60;2.40;;;26.00;87.50;;;;;;5031807;28;20684;-85
2022/05/20 08:55:41;;;;;;;2.97;2.77;;;26.20;84.50;;;;;;5027598;28;20615;-85
2022/05/20 08:58:10;;;;;;;2.60;2.13;;;26.30;83.70;;;;;;5030955;28;21260;-86
2022/05/20 09:00:37;;;;;;;2.50;2.30;;;26.50;82.90;;;;;;5031711;28;20734;-86
2022/05/20 09:03:06;;;;;;;2.33;2.17;;;26.50;81.90;;;;;;5032393;28;20689;-86
2022/05/20 09:05:40;;;;;;;2.13;1.93;;;26.60;79.80;;;;;;5023664;28;21430;-86
2022/05/20 09:08:19;;;;;;;3.20;2.60;;;26.80;80.60;;;;;;5023466;28;20627;-85
2022/05/20 09:10:48;;;;;;;2.47;2.33;;;26.80;79.90;;;;;;5029486;28;20635;-84
2022/05/20 09:13:21;;;;;;;1.77;1.60;;;27.00;78.40;;;;;;5031155;28;20638;-85
2022/05/20 09:15:59;;;;;;;2.83;2.17;;;27.00;79.10;;;;;;5030899;28;20623;-85
2022/05/20 09:18:36;;;;;;;1.77;1.67;;;27.10;75.60;;;;;;5029292;28;20646;-85
2022/05/20 09:21:06;;;;;;;2.63;2.43;;;27.00;75.70;;;;;;5029885;28;20638;-86
2022/05/20 09:23:33;;;;;;;2.40;2.20;;;27.00;71.90;;;;;;5025428;28;20685;-86
2022/05/20 09:26:06;;;;;;;2.43;2.33;;;27.00;75.00;;;;;;5030664;28;20627;-85
2022/05/20 09:28:38;;;;;;;2.20;2.10;;;27.10;76.60;;;;;;5031016;28;20665;-85
2022/05/20 09:31:22;;;;;;;3.10;2.63;;;27.20;73.60;;;;;;5030968;28;20700;-84
2022/05/20 09:33:54;;;;;;;2.27;2.17;;;27.30;76.70;;;;;;5030224;28;21212;-84
2022/05/20 09:36:39;;;;;;;2.37;2.20;;;27.50;74.80;;;;;;5029192;28;20694;-85
2022/05/20 09:39:13;;;;;;;3.43;2.20;;;27.60;72.40;;;;;;5030531;28;20692;-84
2022/05/20 09:41:52;;;;;;;2.50;2.30;;;27.70;71.10;;;;;;5025766;28;20717;-86
2022/05/20 09:44:22;;;;;;;2.10;1.90;;;27.80;71.80;;;;;;5028764;28;20714;-86
2022/05/20 09:46:54;;;;;;;3.73;3.40;;;27.90;68.10;;;;;;5030454;28;20662;-84
2022/05/20 09:49:29;;;;;;;3.50;1.90;;;28.00;73.00;;;;;;5025973;28;20635;-85
2022/05/20 09:52:01;;;;;;;2.00;1.90;;;28.00;68.60;;;;;;5029124;28;20659;-85
2022/05/20 09:54:32;;;;;;;3.70;2.60;;;28.00;69.10;;;;;;5029294;28;20734;-85
2022/05/20 09:57:11;;;;;;;2.00;1.90;;;28.00;71.00;;;;;;5024340;28;20711;-85
2022/05/20 09:59:46;;;;;;;2.13;1.80;;;28.20;69.10;;;;;;5031060;28;20734;-85
2022/05/20 10:02:24;;;;;;;2.90;2.60;;;28.30;67.10;;;;;;5029319;28;20635;-85
2022/05/20 10:05:00;;;;;;;2.23;2.07;;;28.30;68.30;;;;;;5021658;28;20779;-85
2022/05/20 10:07:43;;;;;;;2.73;2.53;;;28.30;65.90;;;;;;5010201;28;20624;-85
2022/05/20 10:10:15;;;;;;;2.47;2.27;;;28.40;68.90;;;;;;5010884;28;20683;-85
2022/05/20 10:12:46;;;;;;;2.93;2.73;;;28.50;69.10;;;;;;5022790;28;20713;-86
2022/05/20 10:15:19;;;;;;;2.30;2.17;;;28.80;66.10;;;;;;5028634;28;20722;-85
2022/05/20 10:17:56;;;;;;;2.80;1.77;;;29.00;65.60;;;;;;5029253;28;20662;-86
2022/05/20 10:20:30;;;;;;;1.80;1.70;;;29.00;62.90;;;;;;5029056;28;20669;-85
2022/05/20 10:23:08;;;;;;;1.90;1.70;;;29.00;65.60;;;;;;5015587;28;20624;-85
2022/05/20 10:25:42;;;;;;;2.33;2.10;;;29.10;62.00;;;;;;5008902;28;21062;-84
2022/05/20 10:33:58;;;;;;;2.20;1.70;;;29.70;59.30;;;;;;5007672;28;20631;-85
2022/05/20 10:36:33;;;;;;;1.80;1.70;;;29.80;57.90;;;;;;5009103;28;20628;-84
2022/05/20 10:39:14;;;;;;;2.40;1.77;;;29.80;55.80;;;;;;5010903;28;21253;-85
2022/05/20 10:41:52;;;;;;;2.03;1.93;;;29.80;54.20;;;;;;5023951;28;20626;-84
2022/05/20 10:50:24;;;;;;;1.77;1.67;;;30.10;55.60;;;;;;5001578;28;20623;-85
2022/05/20 10:53:08;;;;;;;2.50;2.27;;;30.10;54.30;;;;;;5028063;28;20627;-86
2022/05/20 10:55:52;;;;;;;1.80;1.70;;;30.20;54.50;;;;;;5025157;28;20628;-85
2022/05/20 10:59:08;;;;;;;1.93;1.83;;;30.40;55.40;;;;;;5030538;28;20633;-85
2022/05/20 11:01:48;;;;;;;2.43;2.30;;;30.60;54.80;;;;;;4955352;28;20637;-86
2022/05/20 11:04:43;;;;;;;2.27;2.10;;;30.70;54.00;;;;;;5022140;28;20687;-84
2022/05/20 11:07:31;;;;;;;2.10;1.93;;;30.90;53.60;;;;;;5015947;28;20633;-85
2022/05/20 11:10:22;;;;;;;1.97;1.83;;;31.10;56.90;;;;;;5030565;28;20650;-86
2022/05/20 11:12:58;;;;;;;2.57;2.40;;;31.30;53.50;;;;;;5029842;28;21227;-85
2022/05/20 11:15:49;;;;;;;2.50;2.00;;;31.40;51.90;;;;;;5026846;28;20730;-85
2022/05/20 11:18:36;;;;;;;2.10;2.00;;;31.60;53.70;;;;;;5009134;28;20652;-85
2022/05/20 11:21:25;;;;;;;2.10;1.90;;;31.50;51.90;;;;;;5013729;28;20664;-85
2022/05/20 11:24:18;;;;;;;1.90;1.70;;;31.90;52.50;;;;;;5023440;28;21040;-85
2022/05/20 11:27:18;;;;;;;2.67;2.10;;;32.00;51.00;;;;;;5034605;28;20638;-85
2022/05/20 11:30:10;;;;;;;1.80;1.70;;;32.00;53.10;;;;;;5031843;28;20716;-85
2022/05/20 11:33:10;;;;;;;1.67;1.57;;;32.30;49.80;;;;;;5032898;28;20634;-85
2022/05/20 11:35:48;;;;;;;2.93;2.13;;;32.70;51.50;;;;;;5016850;28;20701;-85
2022/05/20 11:38:35;;;;;;;1.93;1.83;;;32.90;51.80;;;;;;5029401;28;20743;-85
2022/05/20 11:41:18;;;;;;;1.33;1.30;;;33.30;50.10;;;;;;5020674;28;20666;-85
2022/05/20 11:44:01;;;;;;;2.13;2.00;;;33.70;50.20;;;;;;5034026;28;20626;-85
2022/05/20 11:46:42;;;;;;;2.43;2.23;;;34.10;52.30;;;;;;5017705;28;21253;-85
2022/05/20 11:49:35;;;;;;;2.40;2.20;;;34.70;49.50;;;;;;5013558;28;20616;-85
2022/05/20 11:52:27;;;;;;;2.40;2.20;;;34.70;46.50;;;;;;5023975;28;21852;-84
2022/05/20 11:54:58;;;;;;;2.47;2.27;;;35.20;47.60;;;;;;5025705;28;21228;-86
2022/05/20 11:57:30;;;;;;;2.43;2.27;;;35.70;45.80;;;;;;5029960;28;20623;-85
2022/05/20 12:00:03;;;;;;;2.50;2.30;;;35.40;48.50;;;;;;5033043;28;21044;-85
2022/05/20 12:02:34;;;;;;;2.90;2.70;;;36.10;46.00;;;;;;5029665;28;20611;-85
2022/05/20 12:05:02;;;;;;;1.70;1.60;;;36.70;47.30;;;;;;5030606;28;20694;-85
2022/05/20 12:07:29;;;;;;;2.13;2.00;;;36.90;46.40;;;;;;5026972;28;20708;-85
2022/05/20 12:09:57;;;;;;;1.90;1.80;;;37.10;45.40;;;;;;5029339;28;20626;-85
2022/05/20 12:12:28;;;;;;;3.00;2.80;;;37.50;44.00;;;;;;5031432;28;20196;-86
2022/05/20 12:15:10;;;;;;;1.57;1.47;;;37.70;43.00;;;;;;5031741;28;20223;-85
2022/05/20 12:17:41;;;;;;;1.87;1.67;;;37.60;44.10;;;;;;5029701;28;20607;-85
2022/05/20 12:26:24;;;;;;;2.22;2.08;;;38.50;41.60;;;;;;5020959;28;20212;-85
2022/05/20 12:28:51;;;;;;;2.22;2.13;;;39.10;42.00;;;;;;5030845;28;20192;-85
2022/05/20 12:31:38;;;;;;;1.90;1.77;;;39.40;40.20;;;;;;5030152;28;20599;-85
2022/05/20 12:34:10;;;;;;;1.90;1.80;;;39.80;39.00;;;;;;5030727;28;20206;-85
2022/05/20 12:36:40;;;;;;;2.30;2.20;;;39.30;39.30;;;;;;5030662;28;20232;-84
2022/05/20 12:39:18;;;;;;;2.03;1.92;;;39.70;40.30;;;;;;5028616;28;20192;-83
2022/05/20 12:41:58;;;;;;;1.73;1.63;;;40.30;37.90;;;;;;5013783;28;20259;-84
2022/05/20 12:44:36;;;;;;;1.92;1.55;;;40.80;39.40;;;;;;5030160;28;20574;-83
2022/05/20 12:47:29;;;;;;;2.03;1.92;;;40.30;37.00;;;;;;5030591;28;20218;-83
2022/05/20 12:50:05;;;;;;;1.92;1.83;;;40.50;38.20;;;;;;5030428;28;20231;-83
2022/05/20 12:52:34;;;;;;;2.08;1.98;;;39.90;37.30;;;;;;5030395;28;20274;-83
2022/05/20 12:55:13;;;;;;;2.00;1.90;;;40.30;35.80;;;;;;5028350;28;20246;-84
2022/05/20 12:57:50;;;;;;;2.05;1.95;;;39.90;38.60;;;;;;5023330;28;20203;-85
2022/05/20 13:00:26;;;;;;;1.55;1.45;;;40.40;37.60;;;;;;5028929;28;20287;-85
2022/05/20 13:02:55;;;;;;;2.03;1.85;;;40.60;37.70;;;;;;5030139;28;20650;-83
2022/05/20 13:05:27;;;;;;;1.80;1.70;;;41.10;36.20;;;;;;5021852;28;20621;-84
2022/05/20 13:07:56;;;;;;;2.13;1.48;;;41.10;35.60;;;;;;5010363;28;20205;-83
2022/05/20 13:10:27;;;;;;;2.50;1.83;;;40.50;36.00;;;;;;5016865;28;20224;-85
2022/05/20 13:12:59;;;;;;;2.33;2.13;;;41.00;37.40;;;;;;5028437;28;20228;-84
2022/05/20 13:15:26;;;;;;;2.03;1.92;;;41.50;35.00;;;;;;5027425;28;20937;-86
2022/05/20 13:18:13;;;;;;;1.83;1.73;;;41.80;34.50;;;;;;5029610;28;20227;-85
2022/05/20 13:20:44;;;;;;;1.40;1.35;;;41.90;34.30;;;;;;5029124;28;20196;-86
2022/05/20 13:23:19;;;;;;;1.90;1.80;;;42.00;34.50;;;;;;5026211;28;20737;-87
2022/05/20 13:25:46;;;;;;;1.80;1.70;;;41.90;35.40;;;;;;5028267;28;20391;-83
2022/05/20 13:28:22;;;;;;;1.67;1.58;;;41.90;36.10;;;;;;5029423;28;20224;-84
2022/05/20 13:30:49;;;;;;;1.90;1.80;;;41.90;34.70;;;;;;5029596;28;20315;-83
2022/05/20 13:33:17;;;;;;;1.73;1.63;;;42.20;35.00;;;;;;5028628;28;20200;-84
2022/05/20 13:35:51;;;;;;;2.10;1.98;;;42.20;34.30;;;;;;5028523;28;20278;-84
2022/05/20 13:38:18;;;;;;;2.00;1.33;;;42.00;34.60;;;;;;5029290;28;20192;-83
2022/05/20 13:40:45;;;;;;;1.70;1.60;;;41.70;34.60;;;;;;5027610;28;20204;-84
2022/05/20 13:43:16;;;;;;;1.52;1.42;;;41.70;34.50;;;;;;5027265;28;20231;-85
2022/05/20 13:51:35;;;;;;;1.95;1.85;;;41.30;33.20;;;;;;4987662;28;20209;-83
2022/05/20 13:54:07;;;;;;;1.83;1.73;;;41.40;34.20;;;;;;4985406;28;20311;-83